Time;durP1;ratioP1;P1;durP2;ratioP2;P2;SDS_P1;SDS_P2;PMS_P1;PMS_P2;Temp;Humidity;BMP_temperature;BMP_pressure;BME280_temperature;BME280_humidity;BME280_pressure;Samples;Min_cycle;Max_cycle;Signal;HPM_P1;HPM_P2
2022/01/27 00:00:36;;;;;;;;;;;;;;;4.19;59.40;100669.25;4445062;32;19980;-83
2022/01/27 00:05:20;;;;;;;;;;;;;;;4.37;59.42;100670.25;4469303;32;19985;-83
2022/01/27 00:07:54;;;;;;;;;;;;;;;4.48;59.42;100664.31;4469603;32;20472;-82
2022/01/27 00:10:30;;;;;;;;;;;;;;;4.45;59.42;100663.44;4454948;32;20524;-83
2022/01/27 00:12:56;;;;;;;;;;;;;;;4.55;59.43;100662.66;4469091;32;19996;-83
2022/01/27 00:15:28;;;;;;;;;;;;;;;4.51;59.43;100668.66;4454607;32;20254;-83
2022/01/27 00:17:58;;;;;;;;;;;;;;;4.58;59.43;100673.00;4468793;32;19996;-83
2022/01/27 00:20:24;;;;;;;;;;;;;;;4.46;59.42;100665.16;4468997;32;19984;-82
2022/01/27 00:22:49;;;;;;;;;;;;;;;4.52;59.43;100663.50;4453954;32;25755;-83
2022/01/27 00:25:14;;;;;;;;;;;;;;;4.55;59.43;100660.06;4469012;32;20269;-83
2022/01/27 00:27:39;;;;;;;;;;;;;;;4.43;59.43;100655.69;4468109;32;28189;-83
2022/01/27 00:30:05;;;;;;;;;;;;;;;4.53;59.43;100651.47;4468810;32;19999;-82
2022/01/27 00:32:31;;;;;;;;;;;;;;;4.21;59.41;100652.06;4468415;32;19973;-83
2022/01/27 00:34:56;;;;;;;;;;;;;;;4.02;59.40;100660.50;4468870;32;19992;-82
2022/01/27 00:37:21;;;;;;;;;;;;;;;4.00;59.40;100664.75;4468826;32;20512;-83
2022/01/27 00:39:47;;;;;;;;;;;;;;;3.88;59.39;100665.53;4468958;32;20004;-82
2022/01/27 00:42:12;;;;;;;;;;;;;;;3.97;59.39;100665.59;4468197;32;28166;-83
2022/01/27 00:44:37;;;;;;;;;;;;;;;4.00;59.40;100663.06;4454022;32;20026;-83
2022/01/27 00:47:02;;;;;;;;;;;;;;;3.76;59.39;100667.97;4468037;32;21157;-83
2022/01/27 00:49:28;;;;;;;;;;;;;;;3.96;59.40;100663.00;4468781;32;19992;-83
2022/01/27 00:51:54;;;;;;;;;;;;;;;3.92;59.40;100669.84;4454131;32;20012;-83
2022/01/27 00:54:23;;;;;;;;;;;;;;;3.96;59.39;100665.59;4441498;32;19992;-83
2022/01/27 00:56:55;;;;;;;;;;;;;;;3.92;59.40;100671.56;4468853;32;19989;-83
2022/01/27 00:59:29;;;;;;;;;;;;;;;3.82;59.39;100662.91;4455099;32;20341;-83
2022/01/27 01:02:14;;;;;;;;;;;;;;;4.00;59.40;100660.47;4453996;32;20382;-84
2022/01/27 01:04:42;;;;;;;;;;;;;;;4.03;59.40;100659.66;4454295;32;19993;-83
2022/01/27 01:07:09;;;;;;;;;;;;;;;4.11;59.41;100665.75;4454668;32;20010;-84
2022/01/27 01:17:45;;;;;;;;;;;;;;;3.94;59.40;100638.97;4468446;32;19984;-84
2022/01/27 01:20:25;;;;;;;;;;;;;;;4.05;59.40;100633.91;4454061;32;19981;-83
2022/01/27 01:31:29;;;;;;;;;;;;;;;4.39;59.42;100633.31;4468598;32;20011;-84
2022/01/27 01:34:13;;;;;;;;;;;;;;;4.20;59.42;100631.44;4457340;32;19983;-84
2022/01/27 01:36:47;;;;;;;;;;;;;;;3.97;59.40;100631.25;4454072;32;19976;-84
2022/01/27 01:39:13;;;;;;;;;;;;;;;3.94;59.39;100631.22;4468513;32;19985;-84
2022/01/27 01:41:38;;;;;;;;;;;;;;;4.10;59.40;100624.50;4453854;32;19987;-83
2022/01/27 01:44:03;;;;;;;;;;;;;;;3.94;59.39;100624.38;4468368;32;20033;-83
2022/01/27 01:46:29;;;;;;;;;;;;;;;3.88;59.39;100620.88;4468377;32;19985;-83
2022/01/27 01:48:54;;;;;;;;;;;;;;;3.97;59.39;100615.81;4453959;32;20001;-83
2022/01/27 01:51:24;;;;;;;;;;;;;;;3.93;59.39;100614.91;4453748;32;20037;-83
2022/01/27 01:53:49;;;;;;;;;;;;;;;3.94;59.39;100619.22;4453691;32;19977;-84
2022/01/27 01:56:14;;;;;;;;;;;;;;;4.03;59.40;100625.31;4453257;32;20285;-83
2022/01/27 01:58:39;;;;;;;;;;;;;;;3.87;59.39;100634.63;4451065;32;29030;-83
2022/01/27 02:01:05;;;;;;;;;;;;;;;4.09;59.40;100630.50;4467658;32;20357;-83
2022/01/27 02:03:30;;;;;;;;;;;;;;;4.01;59.40;100627.84;4453241;32;22483;-84
2022/01/27 02:05:57;;;;;;;;;;;;;;;3.76;59.38;100636.22;4453177;32;20763;-83
2022/01/27 02:18:47;;;;;;;;;;;;;;;3.81;59.38;100624.25;4467820;32;20427;-83
2022/01/27 02:21:12;;;;;;;;;;;;;;;3.57;59.38;100619.75;4467603;32;20052;-83
2022/01/27 02:23:37;;;;;;;;;;;;;;;3.55;59.37;100599.13;4453281;32;20289;-83
2022/01/27 02:26:03;;;;;;;;;;;;;;;3.75;59.38;100590.72;4467414;32;19991;-83
2022/01/27 02:28:28;;;;;;;;;;;;;;;3.73;59.38;100593.28;4467294;32;23281;-84
2022/01/27 02:30:53;;;;;;;;;;;;;;;3.70;59.39;100594.09;4467192;32;20190;-84
2022/01/27 02:33:28;;;;;;;;;;;;;;;3.59;59.37;100592.28;4466917;32;27781;-83
2022/01/27 02:35:53;;;;;;;;;;;;;;;3.76;59.38;100597.56;4467688;32;19989;-84
2022/01/27 02:38:18;;;;;;;;;;;;;;;3.69;59.39;100592.38;4467166;32;22652;-84
2022/01/27 02:40:48;;;;;;;;;;;;;;;3.78;59.39;100583.00;4468810;32;28038;-83
2022/01/27 02:43:13;;;;;;;;;;;;;;;3.87;59.39;100581.38;4469929;32;20040;-83
2022/01/27 02:45:58;;;;;;;;;;;;;;;3.83;59.40;100563.34;4469097;32;32930;-83
2022/01/27 02:48:23;;;;;;;;;;;;;;;4.03;59.40;100571.22;4469831;32;20003;-83
2022/01/27 02:50:48;;;;;;;;;;;;;;;3.95;59.39;100566.84;4455490;32;19981;-84
2022/01/27 02:53:13;;;;;;;;;;;;;;;3.85;59.40;100574.50;4469705;32;19984;-85
2022/01/27 02:55:38;;;;;;;;;;;;;;;3.91;59.40;100571.97;4454759;32;29910;-85
2022/01/27 02:58:04;;;;;;;;;;;;;;;4.07;59.40;100573.81;4469588;32;20021;-84
2022/01/27 03:00:30;;;;;;;;;;;;;;;4.06;59.41;100563.50;4455138;32;19992;-85
2022/01/27 03:02:55;;;;;;;;;;;;;;;4.13;59.41;100567.84;4469624;32;19980;-85
2022/01/27 03:05:20;;;;;;;;;;;;;;;4.22;59.41;100571.34;4469006;32;28017;-85
2022/01/27 03:07:48;;;;;;;;;;;;;;;3.98;59.39;100566.00;4469214;32;20291;-85
2022/01/27 03:10:15;;;;;;;;;;;;;;;4.09;59.41;100572.13;4469675;32;19976;-84
2022/01/27 03:12:40;;;;;;;;;;;;;;;4.08;59.40;100572.13;4455384;32;19991;-84
2022/01/27 03:15:05;;;;;;;;;;;;;;;4.03;59.40;100574.66;4454601;32;23941;-84
2022/01/27 03:17:30;;;;;;;;;;;;;;;4.07;59.40;100584.12;4469601;32;20014;-83
2022/01/27 03:19:56;;;;;;;;;;;;;;;3.95;59.39;100579.72;4442166;32;19981;-83
2022/01/27 03:22:21;;;;;;;;;;;;;;;3.93;59.39;100601.19;4469503;32;19984;-83
2022/01/27 03:24:46;;;;;;;;;;;;;;;3.93;59.40;100598.59;4469510;32;20004;-84
2022/01/27 03:27:22;;;;;;;;;;;;;;;3.76;59.39;100593.28;4455001;32;20024;-84
2022/01/27 03:29:47;;;;;;;;;;;;;;;3.64;59.38;100586.34;4469482;32;20015;-84
2022/01/27 03:32:12;;;;;;;;;;;;;;;3.55;59.37;100585.38;4454172;32;27115;-84
2022/01/27 03:34:38;;;;;;;;;;;;;;;3.61;59.38;100594.03;4469433;32;20011;-84
2022/01/27 03:37:03;;;;;;;;;;;;;;;3.59;59.38;100585.44;4469477;32;19992;-83
2022/01/27 03:39:28;;;;;;;;;;;;;;;3.43;59.37;100580.09;4468734;32;30717;-83
2022/01/27 03:41:56;;;;;;;;;;;;;;;3.18;59.35;100576.41;4469429;32;20008;-83
2022/01/27 03:44:21;;;;;;;;;;;;;;;3.27;59.36;100574.78;4469352;32;19998;-83
2022/01/27 03:46:46;;;;;;;;;;;;;;;3.46;59.37;100568.13;4455180;32;20000;-83
2022/01/27 03:49:12;;;;;;;;;;;;;;;3.41;59.37;100574.09;4469584;32;20024;-83
2022/01/27 03:51:37;;;;;;;;;;;;;;;3.48;59.38;100565.56;4469104;32;19965;-83
2022/01/27 03:54:03;;;;;;;;;;;;;;;3.36;59.36;100551.75;4455335;32;20012;-83
2022/01/27 03:56:29;;;;;;;;;;;;;;;3.34;59.37;100553.44;4469599;32;19988;-83
2022/01/27 03:58:54;;;;;;;;;;;;;;;3.53;59.38;100556.19;4455076;32;20038;-83
2022/01/27 04:01:19;;;;;;;;;;;;;;;3.49;59.37;100550.13;4454370;32;28269;-83
2022/01/27 04:03:45;;;;;;;;;;;;;;;3.23;59.35;100556.75;4469272;32;20019;-83
2022/01/27 04:06:10;;;;;;;;;;;;;;;3.27;59.36;100559.34;4455145;32;20486;-84
2022/01/27 04:08:37;;;;;;;;;;;;;;;3.30;59.35;100561.09;4454913;32;20013;-84
2022/01/27 04:11:03;;;;;;;;;;;;;;;3.37;59.36;100558.63;4469086;32;20147;-84
2022/01/27 04:13:28;;;;;;;;;;;;;;;3.48;59.37;100560.44;4441859;32;20040;-83
2022/01/27 04:15:54;;;;;;;;;;;;;;;3.48;59.38;100568.16;4454165;32;29892;-83
2022/01/27 04:18:19;;;;;;;;;;;;;;;3.65;59.39;100569.19;4469157;32;20003;-84
2022/01/27 04:20:44;;;;;;;;;;;;;;;3.51;59.37;100563.88;4454748;32;20355;-82
2022/01/27 04:23:09;;;;;;;;;;;;;;;3.45;59.37;100566.41;4454752;32;19993;-83
2022/01/27 04:25:37;;;;;;;;;;;;;;;3.62;59.38;100564.00;4469112;32;19981;-83
2022/01/27 04:28:06;;;;;;;;;;;;;;;3.71;59.38;100579.53;4469151;32;20078;-83
2022/01/27 04:30:31;;;;;;;;;;;;;;;3.59;59.38;100575.13;4469136;32;19973;-83
2022/01/27 04:32:59;;;;;;;;;;;;;;;3.55;59.38;100569.91;4468958;32;20031;-83
2022/01/27 04:35:27;;;;;;;;;;;;;;;3.48;59.38;100568.16;4469034;32;19999;-84
2022/01/27 04:38:06;;;;;;;;;;;;;;;3.31;59.37;100558.56;4469146;32;20067;-84
2022/01/27 04:46:21;;;;;;;;;;;;;;;3.73;59.39;100562.37;4456197;32;20000;-84
2022/01/27 04:48:49;;;;;;;;;;;;;;;3.77;59.39;100571.84;4468115;32;20009;-84
2022/01/27 04:51:17;;;;;;;;;;;;;;;3.75;59.38;100562.37;4455675;32;20003;-84
2022/01/27 04:53:53;;;;;;;;;;;;;;;3.64;59.38;100567.44;4454576;32;19989;-84
2022/01/27 04:56:20;;;;;;;;;;;;;;;3.81;59.38;100568.47;4454607;32;20091;-83
2022/01/27 04:58:48;;;;;;;;;;;;;;;3.75;59.38;100576.13;4454684;32;20119;-84
2022/01/27 05:01:16;;;;;;;;;;;;;;;3.69;59.39;100565.78;4468882;32;19973;-84
2022/01/27 05:03:47;;;;;;;;;;;;;;;3.80;59.39;100560.72;4468026;32;20040;-84
2022/01/27 05:06:12;;;;;;;;;;;;;;;3.61;59.38;100559.69;4454538;32;20007;-84
2022/01/27 05:08:37;;;;;;;;;;;;;;;3.58;59.37;100569.97;4468395;32;20523;-83
2022/01/27 05:11:10;;;;;;;;;;;;;;;3.57;59.37;100558.81;4468765;32;19981;-82
2022/01/27 05:13:46;;;;;;;;;;;;;;;3.59;59.37;100556.25;4442225;32;20003;-84
2022/01/27 05:16:11;;;;;;;;;;;;;;;3.66;59.38;100547.72;4468743;32;20005;-84
2022/01/27 05:18:36;;;;;;;;;;;;;;;3.81;59.38;100544.44;4453723;32;24805;-83
2022/01/27 05:21:02;;;;;;;;;;;;;;;3.89;59.39;100547.91;4468729;32;20654;-85
2022/01/27 05:23:27;;;;;;;;;;;;;;;3.87;59.39;100549.63;4468656;32;20010;-83
2022/01/27 05:25:52;;;;;;;;;;;;;;;3.85;59.39;100551.31;4468672;32;20321;-83
2022/01/27 05:28:17;;;;;;;;;;;;;;;3.84;59.39;100558.19;4453542;32;30474;-84
2022/01/27 05:30:43;;;;;;;;;;;;;;;3.91;59.40;100553.94;4468186;32;20249;-83
2022/01/27 05:33:09;;;;;;;;;;;;;;;3.92;59.40;100551.38;4454008;32;20019;-83
2022/01/27 05:35:35;;;;;;;;;;;;;;;3.88;59.39;100559.06;4468491;32;20027;-83
2022/01/27 05:38:01;;;;;;;;;;;;;;;3.98;59.40;100564.28;4468472;32;20025;-83
2022/01/27 05:40:26;;;;;;;;;;;;;;;3.98;59.40;100559.13;4454190;32;19981;-84
2022/01/27 05:42:52;;;;;;;;;;;;;;;3.95;59.39;100548.81;4467620;32;30613;-82
2022/01/27 05:45:17;;;;;;;;;;;;;;;4.00;59.40;100552.28;4468248;32;20011;-83
2022/01/27 05:47:42;;;;;;;;;;;;;;;4.04;59.40;100542.03;4453838;32;20045;-83
2022/01/27 05:50:08;;;;;;;;;;;;;;;4.00;59.40;100548.84;4467754;32;22803;-83
2022/01/27 05:52:33;;;;;;;;;;;;;;;4.06;59.41;100550.62;4468113;32;20000;-84
2022/01/27 05:54:58;;;;;;;;;;;;;;;4.16;59.41;100539.53;4440550;32;872996;-83
2022/01/27 05:57:24;;;;;;;;;;;;;;;4.15;59.41;100538.66;4453110;32;27708;-83
2022/01/27 05:59:49;;;;;;;;;;;;;;;4.12;59.40;100533.50;4453554;32;20059;-83
2022/01/27 06:02:14;;;;;;;;;;;;;;;4.12;59.40;100538.66;4467807;32;20015;-83
2022/01/27 06:04:39;;;;;;;;;;;;;;;4.10;59.40;100530.03;4467857;32;20018;-84
2022/01/27 06:07:05;;;;;;;;;;;;;;;4.15;59.41;100535.22;4452691;32;28426;-83
2022/01/27 06:09:30;;;;;;;;;;;;;;;3.93;59.40;100524.78;4467906;32;20380;-83
2022/01/27 06:11:55;;;;;;;;;;;;;;;4.00;59.40;100528.25;4467037;32;29237;-83
2022/01/27 06:14:20;;;;;;;;;;;;;;;4.16;59.41;100526.62;4441652;32;20023;-82
2022/01/27 06:16:45;;;;;;;;;;;;;;;4.03;59.40;100530.00;4469874;32;20377;-83
2022/01/27 06:19:11;;;;;;;;;;;;;;;3.92;59.40;100525.63;4469782;32;19983;-83
2022/01/27 06:21:36;;;;;;;;;;;;;;;3.93;59.39;100529.91;4455352;32;20425;-85
2022/01/27 06:24:02;;;;;;;;;;;;;;;4.09;59.40;100527.47;4455516;32;20020;-85
2022/01/27 06:26:29;;;;;;;;;;;;;;;4.06;59.41;100527.44;4469864;32;19999;-85
2022/01/27 06:28:55;;;;;;;;;;;;;;;3.94;59.40;100534.22;4469846;32;20007;-83
2022/01/27 06:31:20;;;;;;;;;;;;;;;3.83;59.38;100535.00;4442469;32;19989;-84
2022/01/27 06:33:45;;;;;;;;;;;;;;;3.65;59.38;100534.00;4469034;32;31710;-85
2022/01/27 06:36:10;;;;;;;;;;;;;;;3.80;59.39;100534.97;4441813;32;33841;-87
2022/01/27 06:38:36;;;;;;;;;;;;;;;3.87;59.39;100540.19;4454877;32;21672;-84
2022/01/27 06:41:01;;;;;;;;;;;;;;;3.85;59.39;100548.75;4469591;32;20008;-85
2022/01/27 06:43:26;;;;;;;;;;;;;;;3.94;59.39;100561.69;4469519;32;20332;-85
2022/01/27 06:45:51;;;;;;;;;;;;;;;3.91;59.40;100557.38;4469223;32;21832;-86
2022/01/27 06:48:17;;;;;;;;;;;;;;;4.03;59.40;100560.91;4455280;32;20063;-85
2022/01/27 06:50:42;;;;;;;;;;;;;;;3.86;59.40;100571.06;4454812;32;25894;-85
2022/01/27 06:53:08;;;;;;;;;;;;;;;3.93;59.40;100573.69;4469580;32;19989;-85
2022/01/27 06:55:33;;;;;;;;;;;;;;;3.99;59.40;100578.03;4469662;32;19977;-85
2022/01/27 06:57:58;;;;;;;;;;;;;;;4.17;59.41;100585.06;4469003;32;23282;-86
2022/01/27 07:00:23;;;;;;;;;;;;;;;4.26;59.41;100587.72;4455203;32;19992;-86
2022/01/27 07:02:49;;;;;;;;;;;;;;;4.37;59.42;100580.91;4454856;32;20001;-85
2022/01/27 07:05:15;;;;;;;;;;;;;;;4.44;59.43;100577.50;4455456;32;20004;-86
2022/01/27 07:07:42;;;;;;;;;;;;;;;4.35;59.42;100577.44;4455696;32;20407;-85
2022/01/27 07:10:07;;;;;;;;;;;;;;;4.35;59.42;100564.56;4455538;32;19988;-86
2022/01/27 07:12:32;;;;;;;;;;;;;;;4.28;59.42;100571.41;4469524;32;20046;-86
2022/01/27 07:14:58;;;;;;;;;;;;;;;4.38;59.43;100566.28;4454794;32;27171;-86
2022/01/27 07:17:23;;;;;;;;;;;;;;;4.25;59.41;100565.34;4469648;32;19984;-86
2022/01/27 07:19:48;;;;;;;;;;;;;;;4.34;59.41;100569.72;4455214;32;19992;-86
2022/01/27 07:22:14;;;;;;;;;;;;;;;4.30;59.42;100569.69;4441681;32;26657;-85
2022/01/27 07:24:39;;;;;;;;;;;;;;;4.28;59.42;100563.66;4469402;32;20026;-85
2022/01/27 07:27:05;;;;;;;;;;;;;;;4.03;59.40;100569.50;4468559;32;23845;-85
2022/01/27 07:29:30;;;;;;;;;;;;;;;4.25;59.41;100555.91;4469558;32;20366;-86
2022/01/27 07:31:55;;;;;;;;;;;;;;;4.16;59.41;100552.41;4468653;32;32215;-84
2022/01/27 07:34:21;;;;;;;;;;;;;;;4.23;59.41;100546.44;4469508;32;19976;-84
2022/01/27 07:36:46;;;;;;;;;;;;;;;4.16;59.41;100539.53;4468751;32;30328;-85
2022/01/27 07:39:16;;;;;;;;;;;;;;;4.09;59.41;100551.50;4469516;32;20338;-86
2022/01/27 07:41:42;;;;;;;;;;;;;;;3.98;59.40;100546.25;4469570;32;19988;-85
2022/01/27 07:44:07;;;;;;;;;;;;;;;4.18;59.41;100541.25;4455206;32;19969;-85
2022/01/27 07:46:32;;;;;;;;;;;;;;;4.25;59.41;100534.41;4468944;32;25943;-86
2022/01/27 07:48:57;;;;;;;;;;;;;;;4.30;59.42;100530.19;4469218;32;19981;-85
2022/01/27 07:51:23;;;;;;;;;;;;;;;4.35;59.41;100530.19;4454510;32;27311;-87
2022/01/27 07:53:48;;;;;;;;;;;;;;;4.28;59.42;100540.47;4455066;32;20030;-85
2022/01/27 07:56:13;;;;;;;;;;;;;;;4.24;59.42;100533.56;4468726;32;31215;-85
2022/01/27 07:58:40;;;;;;;;;;;;;;;4.29;59.42;100531.03;4454616;32;22256;-85
2022/01/27 08:01:07;;;;;;;;;;;;;;;4.34;59.42;100531.06;4455335;32;20127;-85
2022/01/27 08:03:33;;;;;;;;;;;;;;;4.36;59.43;100529.34;4455039;32;19988;-85
2022/01/27 08:05:58;;;;;;;;;;;;;;;4.48;59.42;100531.97;4468641;32;31121;-85
2022/01/27 08:08:23;;;;;;;;;;;;;;;4.54;59.43;100526.88;4454595;32;22025;-85
2022/01/27 08:10:48;;;;;;;;;;;;;;;4.45;59.43;100522.50;4468556;32;28370;-86
2022/01/27 08:13:13;;;;;;;;;;;;;;;4.64;59.44;100518.31;4454967;32;20038;-84
2022/01/27 08:15:39;;;;;;;;;;;;;;;4.68;59.44;100524.34;4454240;32;32069;-84
2022/01/27 08:18:04;;;;;;;;;;;;;;;4.76;59.45;100517.50;4469194;32;20015;-85
2022/01/27 08:20:30;;;;;;;;;;;;;;;4.81;59.45;100521.81;4441853;32;20338;-84
2022/01/27 08:22:55;;;;;;;;;;;;;;;4.60;59.44;100520.00;4469083;32;19981;-84
2022/01/27 08:25:21;;;;;;;;;;;;;;;4.66;59.44;100518.31;4454997;32;19972;-84
2022/01/27 08:27:48;;;;;;;;;;;;;;;4.82;59.45;100525.25;4469274;32;20629;-84
2022/01/27 08:30:16;;;;;;;;;;;;;;;4.68;59.44;100521.75;4454815;32;20032;-84
2022/01/27 08:32:50;;;;;;;;;;;;;;;4.48;59.42;100526.81;4454768;32;20522;-84
2022/01/27 08:35:16;;;;;;;;;;;;;;;4.67;59.44;100522.63;4469205;32;20466;-84
2022/01/27 08:37:42;;;;;;;;;;;;;;;4.99;59.46;100515.88;4440673;32;19973;-84
2022/01/27 08:40:08;;;;;;;;;;;;;;;5.11;59.46;100521.03;4469114;32;20290;-84
2022/01/27 08:42:33;;;;;;;;;;;;;;;5.12;59.47;100524.50;4454810;32;20040;-84
2022/01/27 08:44:58;;;;;;;;;;;;;;;5.00;59.45;100512.44;4468300;32;32539;-85
2022/01/27 08:47:24;;;;;;;;;;;;;;;5.16;59.47;100506.44;4468388;32;27030;-85
2022/01/27 08:49:49;;;;;;;;;;;;;;;5.48;59.48;100505.63;4469173;32;19988;-85
2022/01/27 08:52:14;;;;;;;;;;;;;;;5.81;59.50;100507.34;4454267;32;19985;-85
2022/01/27 08:54:40;;;;;;;;;;;;;;;5.98;59.52;100505.66;4469028;32;19992;-84
2022/01/27 08:57:05;;;;;;;;;;;;;;;6.21;59.53;100512.50;4468544;32;20465;-84
2022/01/27 08:59:30;;;;;;;;;;;;;;;6.26;59.53;100516.78;4468646;32;20033;-84
2022/01/27 09:01:56;;;;;;;;;;;;;;;6.26;59.52;100510.75;4466984;32;32411;-84
2022/01/27 09:04:21;;;;;;;;;;;;;;;6.26;59.52;100514.22;4467239;32;32915;-84
2022/01/27 09:06:46;;;;;;;;;;;;;;;6.43;59.54;100511.59;4441545;32;20050;-84
2022/01/27 09:09:11;;;;;;;;;;;;;;;6.53;59.54;100509.81;4468827;32;19985;-85
2022/01/27 09:11:37;;;;;;;;;;;;;;;6.08;59.52;100512.50;4468874;32;20012;-84
2022/01/27 09:14:02;;;;;;;;;;;;;;;6.09;59.52;100509.06;4454565;32;20008;-85
2022/01/27 09:16:28;;;;;;;;;;;;;;;6.05;59.51;100511.66;4454566;32;20000;-84
2022/01/27 09:18:58;;;;;;;;;;;;;;;5.85;59.51;100527.16;4454495;32;19985;-84
2022/01/27 09:21:27;;;;;;;;;;;;;;;5.92;59.51;100518.59;4441618;32;20082;-84
2022/01/27 09:23:53;;;;;;;;;;;;;;;5.96;59.51;100533.22;4468876;32;19964;-84
2022/01/27 09:29:02;;;;;;;;;;;;;;;5.72;59.50;100526.31;4456681;32;19995;-84
2022/01/27 09:31:27;;;;;;;;;;;;;;;5.81;59.50;100533.19;4468331;32;20020;-84
2022/01/27 09:33:53;;;;;;;;;;;;;;;5.71;59.50;100529.75;4468676;32;19992;-84
2022/01/27 09:36:18;;;;;;;;;;;;;;;5.81;59.50;100531.47;4453661;32;24572;-84
2022/01/27 09:38:43;;;;;;;;;;;;;;;5.76;59.50;100538.34;4453544;32;23257;-84
2022/01/27 09:41:08;;;;;;;;;;;;;;;5.64;59.50;100532.31;4454102;32;20317;-84
2022/01/27 09:43:37;;;;;;;;;;;;;;;5.64;59.49;100530.59;4453952;32;19973;-83
2022/01/27 09:46:05;;;;;;;;;;;;;;;5.71;59.50;100524.59;4441137;32;19976;-85
2022/01/27 09:48:36;;;;;;;;;;;;;;;5.95;59.51;100525.47;4454471;32;19966;-84
2022/01/27 09:51:23;;;;;;;;;;;;;;;5.91;59.51;100509.06;4456694;32;20015;-83
2022/01/27 09:53:46;;;;;;;;;;;;;;;5.94;59.50;100511.69;4469934;32;19977;-84
2022/01/27 09:56:12;;;;;;;;;;;;;;;5.59;59.49;100515.94;4455816;32;19990;-84
2022/01/27 09:58:37;;;;;;;;;;;;;;;5.61;59.49;100512.50;4470004;32;19977;-85
2022/01/27 10:01:04;;;;;;;;;;;;;;;5.70;59.50;100522.00;4469680;32;25351;-84
2022/01/27 10:03:30;;;;;;;;;;;;;;;5.87;59.50;100507.34;4456101;32;19980;-84
2022/01/27 10:06:07;;;;;;;;;;;;;;;6.14;59.53;100506.47;4470173;32;19995;-84
2022/01/27 10:08:34;;;;;;;;;;;;;;;5.93;59.51;100503.94;4470171;32;20048;-84
2022/01/27 10:10:59;;;;;;;;;;;;;;;5.93;59.51;100506.53;4443008;32;20259;-84
2022/01/27 10:13:40;;;;;;;;;;;;;;;6.11;59.52;100499.56;4455140;32;21201;-84
2022/01/27 10:16:07;;;;;;;;;;;;;;;5.83;59.51;100493.56;4455822;32;19984;-84
2022/01/27 10:18:35;;;;;;;;;;;;;;;5.82;59.50;100485.81;4455656;32;20052;-84
2022/01/27 10:21:09;;;;;;;;;;;;;;;5.77;59.50;100483.25;4470085;32;19992;-84
2022/01/27 10:23:39;;;;;;;;;;;;;;;5.78;59.50;100477.22;4455559;32;19973;-84
2022/01/27 10:26:12;;;;;;;;;;;;;;;6.11;59.52;100467.69;4455775;32;20361;-83
2022/01/27 10:31:10;;;;;;;;;;;;;;;6.22;59.53;100454.75;4469917;32;20023;-84
2022/01/27 10:33:49;;;;;;;;;;;;;;;6.41;59.53;100449.53;4455443;32;20029;-83
2022/01/27 10:36:18;;;;;;;;;;;;;;;6.47;59.54;100456.41;4470012;32;19989;-84
2022/01/27 10:38:43;;;;;;;;;;;;;;;6.69;59.55;100436.47;4455576;32;19997;-84
2022/01/27 10:41:08;;;;;;;;;;;;;;;6.74;59.56;100450.22;4455005;32;22254;-84
2022/01/27 10:43:34;;;;;;;;;;;;;;;6.63;59.55;100433.91;4469669;32;19977;-83
2022/01/27 10:46:00;;;;;;;;;;;;;;;6.86;59.56;100426.00;4469925;32;20006;-83
2022/01/27 10:48:29;;;;;;;;;;;;;;;7.07;59.57;100426.72;4470030;32;19989;-84
2022/01/27 10:53:23;;;;;;;;;;;;;;;6.85;59.56;100416.53;4469780;32;19973;-83
2022/01/27 10:56:04;;;;;;;;;;;;;;;6.91;59.56;100419.94;4455491;32;19988;-84
2022/01/27 10:58:31;;;;;;;;;;;;;;;6.84;59.56;100402.72;4455394;32;20000;-84
2022/01/27 11:00:58;;;;;;;;;;;;;;;6.81;59.56;100401.88;4454819;32;20157;-83
2022/01/27 11:03:23;;;;;;;;;;;;;;;6.78;59.56;100407.94;4469791;32;19984;-84
2022/01/27 11:05:50;;;;;;;;;;;;;;;6.88;59.56;100401.84;4469737;32;20012;-84
2022/01/27 11:08:16;;;;;;;;;;;;;;;6.84;59.56;100405.31;4469548;32;20004;-84
2022/01/27 11:10:41;;;;;;;;;;;;;;;6.76;59.55;100401.91;4469585;32;19987;-84
2022/01/27 11:13:07;;;;;;;;;;;;;;;6.96;59.57;100399.22;4455296;32;20014;-83
2022/01/27 11:15:33;;;;;;;;;;;;;;;6.81;59.57;100394.13;4455279;32;19981;-84
2022/01/27 11:17:58;;;;;;;;;;;;;;;7.00;59.57;100381.06;4455397;32;20337;-84
2022/01/27 11:20:30;;;;;;;;;;;;;;;7.22;59.58;100386.06;4455049;32;20024;-84
2022/01/27 11:28:01;;;;;;;;;;;;;;;7.33;59.59;100368.69;4456062;32;19992;-84
2022/01/27 11:30:45;;;;;;;;;;;;;;;7.46;59.59;100380.69;4455230;32;20364;-84
2022/01/27 11:33:11;;;;;;;;;;;;;;;7.66;59.61;100372.72;4455309;32;20034;-84
2022/01/27 11:35:36;;;;;;;;;;;;;;;7.47;59.59;100371.16;4442514;32;20040;-84
2022/01/27 11:38:04;;;;;;;;;;;;;;;7.55;59.60;100367.62;4468991;32;32295;-84
2022/01/27 11:40:36;;;;;;;;;;;;;;;7.70;59.61;100359.69;4455328;32;19997;-84
2022/01/27 11:43:06;;;;;;;;;;;;;;;7.47;59.60;100361.66;4455353;32;20025;-84
2022/01/27 11:45:31;;;;;;;;;;;;;;;7.70;59.62;100356.25;4469297;32;20037;-83
2022/01/27 11:47:58;;;;;;;;;;;;;;;7.90;59.61;100348.25;4455326;32;20013;-84
2022/01/27 11:50:37;;;;;;;;;;;;;;;7.89;59.62;100344.81;4455042;32;20024;-82
2022/01/27 11:53:03;;;;;;;;;;;;;;;7.82;59.61;100343.19;4469722;32;19995;-83
2022/01/27 11:55:29;;;;;;;;;;;;;;;7.95;59.62;100339.56;4469713;32;20322;-84
2022/01/27 11:57:55;;;;;;;;;;;;;;;7.77;59.62;100334.56;4469263;32;20007;-84
2022/01/27 12:00:21;;;;;;;;;;;;;;;7.74;59.61;100334.59;4469227;32;19992;-84
2022/01/27 12:02:58;;;;;;;;;;;;;;;8.05;59.63;100323.91;4469119;32;19965;-84
2022/01/27 12:05:23;;;;;;;;;;;;;;;7.86;59.62;100339.66;4468968;32;20093;-84
2022/01/27 12:08:08;;;;;;;;;;;;;;;7.73;59.61;100325.13;4454930;32;20329;-84
2022/01/27 12:10:44;;;;;;;;;;;;;;;7.65;59.60;100338.16;4469353;32;20315;-83
2022/01/27 12:13:30;;;;;;;;;;;;;;;7.77;59.61;100331.97;4469246;32;20306;-85
2022/01/27 12:16:57;;;;;;;;;;;;;;;8.05;59.62;100323.91;4469236;32;19997;-84
2022/01/27 12:19:00;;;;;;;;;;;;;;;8.08;59.63;100327.31;4457652;32;20000;-82
2022/01/27 12:21:35;;;;;;;;;;;;;;;8.34;59.65;100318.37;4454815;32;19977;-83
2022/01/27 12:24:13;;;;;;;;;;;;;;;8.42;59.64;100321.69;4469178;32;19991;-82
2022/01/27 12:26:58;;;;;;;;;;;;;;;8.39;59.65;100319.16;4469185;32;20285;-82
2022/01/27 12:29:26;;;;;;;;;;;;;;;8.50;59.65;100325.03;4455016;32;20342;-82
2022/01/27 12:31:51;;;;;;;;;;;;;;;8.39;59.65;100313.97;4469227;32;19989;-82
2022/01/27 12:34:17;;;;;;;;;;;;;;;8.19;59.64;100316.78;4468894;32;20026;-82
2022/01/27 12:37:01;;;;;;;;;;;;;;;8.09;59.63;100305.69;4454754;32;20033;-82
2022/01/27 12:39:28;;;;;;;;;;;;;;;7.86;59.62;100310.31;4469378;32;19988;-86
2022/01/27 12:41:54;;;;;;;;;;;;;;;7.87;59.62;100304.25;4469352;32;19995;-82
2022/01/27 12:44:20;;;;;;;;;;;;;;;7.82;59.62;100300.84;4455101;32;19977;-82
2022/01/27 12:47:21;;;;;;;;;;;;;;;7.73;59.61;100286.25;4455006;32;20038;-82
2022/01/27 12:49:46;;;;;;;;;;;;;;;7.88;59.62;100285.22;4389926;32;20002;-84
2022/01/27 12:52:19;;;;;;;;;;;;;;;7.99;59.63;100286.78;4451819;32;20070;-82
2022/01/27 12:54:45;;;;;;;;;;;;;;;8.12;59.63;100271.94;4454516;32;20241;-82
2022/01/27 12:57:10;;;;;;;;;;;;;;;8.25;59.64;100270.00;4454629;32;19984;-82
2022/01/27 12:59:42;;;;;;;;;;;;;;;8.22;59.64;100257.94;4468751;32;20003;-82
2022/01/27 13:02:08;;;;;;;;;;;;;;;8.23;59.64;100254.47;4454801;32;19988;-85
2022/01/27 13:04:34;;;;;;;;;;;;;;;8.25;59.64;100250.13;4468965;32;19993;-82
2022/01/27 13:06:59;;;;;;;;;;;;;;;8.22;59.63;100238.94;4468905;32;20025;-82
2022/01/27 13:09:26;;;;;;;;;;;;;;;8.26;59.64;100235.41;4454646;32;20045;-82
2022/01/27 13:11:53;;;;;;;;;;;;;;;8.30;59.65;100232.78;4468799;32;20118;-82
2022/01/27 13:14:19;;;;;;;;;;;;;;;8.34;59.65;100215.47;4441726;32;19977;-83
2022/01/27 13:16:48;;;;;;;;;;;;;;;8.56;59.66;100208.19;4454447;32;20040;-82
2022/01/27 13:19:27;;;;;;;;;;;;;;;8.62;59.66;100202.91;4453409;32;19993;-82
2022/01/27 13:21:59;;;;;;;;;;;;;;;8.79;59.67;100207.81;4455342;32;19969;-84
2022/01/27 13:24:26;;;;;;;;;;;;;;;8.90;59.68;100198.94;4467124;32;19985;-82
2022/01/27 13:27:02;;;;;;;;;;;;;;;8.86;59.67;100199.03;4454358;32;20043;-84
2022/01/27 13:29:29;;;;;;;;;;;;;;;8.85;59.67;100198.16;4468531;32;20355;-83
2022/01/27 13:31:54;;;;;;;;;;;;;;;8.86;59.67;100199.87;4468471;32;20000;-83
2022/01/27 13:34:19;;;;;;;;;;;;;;;8.93;59.68;100196.28;4441191;32;19981;-83
2022/01/27 13:36:57;;;;;;;;;;;;;;;8.86;59.67;100202.47;4454161;32;19986;-83